createdAt,value
2022-11-05T00:02:08.978Z,19.00
2022-11-05T00:04:57.922Z,22.80
2022-11-05T00:07:51.063Z,26.30
2022-11-05T00:10:24.671Z,25.00
2022-11-05T00:13:30.121Z,21.80
2022-11-05T00:16:30.083Z,20.50
2022-11-05T00:19:07.493Z,22.00
2022-11-05T00:21:57.721Z,28.60
2022-11-05T00:24:46.146Z,18.10
2022-11-05T00:27:17.005Z,19.90
2022-11-05T00:29:47.879Z,23.00
2022-11-05T00:32:19.368Z,24.90
2022-11-05T00:34:50.308Z,21.60
2022-11-05T00:37:21.135Z,27.10
2022-11-05T00:39:52.058Z,26.90
2022-11-05T00:42:40.718Z,20.90
2022-11-05T00:45:12.845Z,24.40
2022-11-05T00:48:02.241Z,22.20
2022-11-05T00:50:34.128Z,20.60
2022-11-05T00:53:05.409Z,24.50
2022-11-05T00:55:39.212Z,27.10
2022-11-05T00:58:12.437Z,22.40
2022-11-05T01:00:45.932Z,26.60
2022-11-05T01:03:19.771Z,25.00
2022-11-05T01:05:52.610Z,23.30
2022-11-05T01:08:24.885Z,18.90
2022-11-05T01:10:57.845Z,20.80
2022-11-05T01:13:30.777Z,24.30
2022-11-05T01:16:08.795Z,23.80
2022-11-05T01:18:40.853Z,20.30
2022-11-05T01:21:16.738Z,27.40
2022-11-05T01:23:47.613Z,24.40
2022-11-05T01:26:18.499Z,23.80
2022-11-05T01:28:53.468Z,23.20
2022-11-05T01:33:54.168Z,21.50
2022-11-05T01:36:25.038Z,23.30
2022-11-05T01:38:55.849Z,27.10
2022-11-05T01:41:26.604Z,23.40
2022-11-05T01:44:00.112Z,22.80
2022-11-05T01:46:33.655Z,29.00
2022-11-05T01:49:14.824Z,18.20
2022-11-05T01:51:48.413Z,28.30
2022-11-05T01:54:23.292Z,21.00
2022-11-05T01:56:59.525Z,24.00
2022-11-05T01:59:35.991Z,24.60
2022-11-05T02:02:09.274Z,18.10
2022-11-05T02:04:46.287Z,20.80
2022-11-05T02:07:18.257Z,22.60
2022-11-05T02:09:54.600Z,19.10
2022-11-05T02:12:26.034Z,19.60
2022-11-05T02:14:57.119Z,23.30
2022-11-05T02:17:37.602Z,21.80
2022-11-05T02:20:27.171Z,26.00
2022-11-05T02:23:32.866Z,20.00
2022-11-05T02:26:26.671Z,24.90
2022-11-05T02:29:23.101Z,23.30
2022-11-05T02:32:04.302Z,29.60
2022-11-05T02:34:42.518Z,22.10
2022-11-05T02:37:26.582Z,26.80
2022-11-05T02:40:07.710Z,20.90
2022-11-05T02:42:46.580Z,26.70
2022-11-05T02:45:27.876Z,30.50
2022-11-05T02:48:08.939Z,24.80
2022-11-05T02:50:47.519Z,21.20
2022-11-05T02:53:29.336Z,20.40
2022-11-05T02:56:06.571Z,27.60
2022-11-05T02:58:37.760Z,24.70
2022-11-05T03:01:10.646Z,28.60
2022-11-05T03:03:44.602Z,26.40
2022-11-05T03:06:49.484Z,23.00
2022-11-05T03:09:44.959Z,28.00
2022-11-05T03:12:27.788Z,19.80
2022-11-05T03:15:09.275Z,29.10
2022-11-05T03:17:52.567Z,28.00
2022-11-05T03:20:30.692Z,20.90
2022-11-05T03:23:10.703Z,19.90
2022-11-05T03:25:46.036Z,25.60
2022-11-05T03:28:19.566Z,16.50
2022-11-05T03:30:53.570Z,24.40
2022-11-05T03:33:28.794Z,31.50
2022-11-05T03:38:35.693Z,27.20
2022-11-05T03:41:11.078Z,25.00
2022-11-05T03:43:48.043Z,24.00
2022-11-05T03:46:24.106Z,25.90
2022-11-05T03:48:58.493Z,27.30
2022-11-05T03:51:39.911Z,30.00
2022-11-05T03:54:11.611Z,34.50
2022-11-05T03:56:47.676Z,29.90
2022-11-05T03:59:20.499Z,31.30
2022-11-05T04:01:52.427Z,30.40
2022-11-05T04:04:23.504Z,34.50
2022-11-05T04:07:20.314Z,33.10
2022-11-05T04:10:08.752Z,30.70
2022-11-05T04:12:57.529Z,28.70
2022-11-05T04:15:29.693Z,24.80
2022-11-05T04:18:00.505Z,31.20
2022-11-05T04:20:48.736Z,34.00
2022-11-05T04:23:37.388Z,25.60
2022-11-05T04:26:08.323Z,27.70
2022-11-05T04:28:52.956Z,23.20
2022-11-05T04:31:23.831Z,27.90
2022-11-05T04:33:54.742Z,24.60
2022-11-05T04:36:25.767Z,27.00
2022-11-05T04:38:56.696Z,28.00
2022-11-05T04:41:27.834Z,30.70
2022-11-05T04:43:58.673Z,25.30
2022-11-05T04:46:29.834Z,26.60
2022-11-05T04:49:00.687Z,24.20
2022-11-05T04:51:31.491Z,24.70
2022-11-05T04:54:02.393Z,29.90
2022-11-05T04:56:33.577Z,31.40
2022-11-05T04:59:04.458Z,29.00
2022-11-05T05:01:35.308Z,27.80
2022-11-05T05:04:06.300Z,25.70
2022-11-05T05:06:38.478Z,30.80
2022-11-05T05:09:09.322Z,28.90
2022-11-05T05:11:41.149Z,23.90
2022-11-05T05:14:12.599Z,34.50
2022-11-05T05:16:43.502Z,26.40
2022-11-05T05:19:14.279Z,25.30
2022-11-05T05:21:45.087Z,28.40
2022-11-05T05:24:18.775Z,32.00
2022-11-05T05:26:51.929Z,33.20
2022-11-05T05:29:22.703Z,26.60
2022-11-05T05:31:53.544Z,29.30
2022-11-05T05:34:24.373Z,29.40
2022-11-05T05:36:55.169Z,23.00
2022-11-05T05:39:27.033Z,28.90
2022-11-05T05:41:57.855Z,29.40
2022-11-05T05:44:28.721Z,37.10
2022-11-05T05:46:59.560Z,29.20
2022-11-05T05:49:30.661Z,37.70
2022-11-05T05:52:01.419Z,31.30
2022-11-05T05:54:34.275Z,37.10
2022-11-05T05:57:08.090Z,33.10
2022-11-05T05:59:39.190Z,33.90
2022-11-05T06:02:10.974Z,37.40
2022-11-05T06:04:41.934Z,26.50
2022-11-05T06:07:12.726Z,33.10
2022-11-05T06:09:43.510Z,30.50
2022-11-05T06:12:14.340Z,27.70
2022-11-05T06:14:45.204Z,35.40
2022-11-05T06:17:16.056Z,31.60
2022-11-05T06:19:47.376Z,35.00
2022-11-05T06:22:18.167Z,31.20
2022-11-05T06:24:49.035Z,37.80
2022-11-05T06:27:19.848Z,35.80
2022-11-05T06:29:50.631Z,29.90
2022-11-05T06:32:21.450Z,39.10
2022-11-05T06:34:52.284Z,37.70
2022-11-05T06:37:23.061Z,36.80
2022-11-05T06:39:53.847Z,35.80
2022-11-05T06:42:25.408Z,32.80
2022-11-05T06:44:56.311Z,28.50
2022-11-05T06:47:27.060Z,28.20
2022-11-05T06:49:58.240Z,35.80
2022-11-05T06:52:31.380Z,32.30
2022-11-05T06:55:02.193Z,29.00
2022-11-05T06:57:33.341Z,31.50
2022-11-05T07:00:07.823Z,29.00
2022-11-05T07:02:39.013Z,28.90
2022-11-05T07:05:11.732Z,36.80
2022-11-05T07:07:43.221Z,43.70
2022-11-05T07:10:16.866Z,33.90
2022-11-05T07:12:47.651Z,24.50
2022-11-05T07:15:18.618Z,36.80
2022-11-05T07:17:49.917Z,28.40
2022-11-05T07:20:20.809Z,30.60
2022-11-05T07:22:51.646Z,31.20
2022-11-05T07:25:22.491Z,28.50
2022-11-05T07:27:53.624Z,32.10
2022-11-05T07:30:24.394Z,31.10
2022-11-05T07:32:55.166Z,29.20
2022-11-05T07:35:26.175Z,32.90
2022-11-05T07:37:57.631Z,27.10
2022-11-05T07:40:30.564Z,33.20
2022-11-05T07:43:02.567Z,35.20
2022-11-05T07:45:33.981Z,31.50
2022-11-05T07:48:06.049Z,41.80
2022-11-05T07:50:38.181Z,35.10
2022-11-05T07:53:12.120Z,41.10
2022-11-05T07:55:46.105Z,26.80
2022-11-05T07:58:16.981Z,35.70
2022-11-05T08:00:49.943Z,39.40
2022-11-05T08:03:21.970Z,33.50
2022-11-05T08:05:53.923Z,34.40
2022-11-05T08:08:25.145Z,33.50
2022-11-05T08:11:04.990Z,31.90
2022-11-05T08:13:37.760Z,30.80
2022-11-05T08:16:10.855Z,34.80
2022-11-05T08:18:42.900Z,31.60
2022-11-05T08:21:16.738Z,34.30
2022-11-05T08:23:48.630Z,33.70
2022-11-05T08:26:20.833Z,28.80
2022-11-05T08:28:52.071Z,35.30
2022-11-05T08:31:23.328Z,30.00
2022-11-05T08:33:59.680Z,31.10
2022-11-05T08:36:35.568Z,36.50
2022-11-05T08:39:06.637Z,30.70
2022-11-05T08:41:38.240Z,34.00
2022-11-05T08:44:12.422Z,35.20
2022-11-05T08:46:44.218Z,30.00
2022-11-05T08:49:15.269Z,34.70
2022-11-05T08:51:47.851Z,31.60
2022-11-05T08:54:18.741Z,37.10
2022-11-05T08:56:52.342Z,32.10
2022-11-05T08:59:25.130Z,30.60
2022-11-05T09:01:56.641Z,32.40
2022-11-05T09:04:28.069Z,42.90
2022-11-05T09:06:59.866Z,33.80
2022-11-05T09:09:32.950Z,30.10
2022-11-05T09:12:12.992Z,38.40
2022-11-05T09:14:44.910Z,35.90
2022-11-05T09:17:23.443Z,28.50
2022-11-05T09:19:54.717Z,34.30
2022-11-05T09:22:26.081Z,34.10
2022-11-05T09:24:58.767Z,31.50
2022-11-05T09:27:31.597Z,34.40
2022-11-05T09:30:02.660Z,36.30
2022-11-05T09:32:35.543Z,35.70
2022-11-05T09:35:10.825Z,39.40
2022-11-05T09:40:19.591Z,34.60
2022-11-05T09:42:52.809Z,36.10
2022-11-05T09:45:28.260Z,38.80
2022-11-05T09:48:05.654Z,40.80
2022-11-05T09:50:41.440Z,40.70
2022-11-05T09:53:18.503Z,35.80
2022-11-05T09:55:56.850Z,43.10
2022-11-05T09:58:37.489Z,35.20
2022-11-05T10:01:13.528Z,39.60
2022-11-05T10:03:47.635Z,34.30
2022-11-05T10:06:24.091Z,36.30
2022-11-05T10:09:02.448Z,37.00
2022-11-05T10:11:38.372Z,39.50
2022-11-05T10:14:18.348Z,38.20
2022-11-05T10:16:54.251Z,39.30
2022-11-05T10:19:27.974Z,36.00
2022-11-05T10:22:10.894Z,36.70
2022-11-05T10:24:46.533Z,35.60
2022-11-05T10:27:21.261Z,34.10
2022-11-05T10:29:54.081Z,36.10
2022-11-05T10:32:40.247Z,41.20
2022-11-05T10:35:18.551Z,38.10
2022-11-05T10:37:53.770Z,42.30
2022-11-05T10:43:07.433Z,34.50
2022-11-05T10:45:47.535Z,38.80
2022-11-05T10:48:43.866Z,34.20
2022-11-05T10:51:16.263Z,30.50
2022-11-05T10:54:01.345Z,31.10
2022-11-05T10:56:36.999Z,41.20
2022-11-05T10:59:23.407Z,37.00
2022-11-05T11:02:04.604Z,36.00
2022-11-05T11:04:38.050Z,36.60
2022-11-05T11:07:23.510Z,46.20
2022-11-05T11:09:55.109Z,41.60
2022-11-05T11:12:29.005Z,35.60
2022-11-05T11:15:15.236Z,40.50
2022-11-05T11:17:46.587Z,40.80
2022-11-05T11:20:30.185Z,43.50
2022-11-05T11:23:12.537Z,31.30
2022-11-05T11:25:51.483Z,42.00
2022-11-05T11:28:29.870Z,36.00
2022-11-05T11:31:07.977Z,40.60
2022-11-05T11:33:45.804Z,41.20
2022-11-05T11:36:19.706Z,39.80
2022-11-05T11:38:50.738Z,51.70
2022-11-05T11:41:31.110Z,41.40
2022-11-05T11:44:07.583Z,48.00
2022-11-05T11:46:39.195Z,38.50
2022-11-05T11:49:35.107Z,45.30
2022-11-05T11:52:11.874Z,41.20
2022-11-05T11:54:43.464Z,42.90
2022-11-05T11:57:25.821Z,41.50
2022-11-05T12:00:09.455Z,41.10
2022-11-05T12:03:02.271Z,44.30
2022-11-05T12:05:51.569Z,54.10
2022-11-05T12:08:58.216Z,47.80
2022-11-05T12:11:40.554Z,44.10
2022-11-05T12:14:23.839Z,45.50
2022-11-05T12:17:32.570Z,46.90
2022-11-05T12:20:41.988Z,49.00
2022-11-05T12:23:43.154Z,45.30
2022-11-05T12:26:24.953Z,43.60
2022-11-05T12:29:20.032Z,48.70
2022-11-05T12:32:12.106Z,48.30
2022-11-05T12:34:54.284Z,46.80
2022-11-05T12:37:33.695Z,43.10
2022-11-05T12:40:35.292Z,45.80
2022-11-05T12:43:18.415Z,46.00
2022-11-05T12:45:56.890Z,40.80
2022-11-05T12:48:46.640Z,49.30
2022-11-05T12:51:35.262Z,47.00
2022-11-05T12:54:21.239Z,41.00
2022-11-05T12:56:58.049Z,55.30
2022-11-05T12:59:36.121Z,50.10
2022-11-05T13:02:18.009Z,46.70
2022-11-05T13:04:53.258Z,59.70
2022-11-05T13:10:01.067Z,44.50
2022-11-05T13:12:39.229Z,40.00
2022-11-05T13:15:23.000Z,46.70
2022-11-05T13:17:58.526Z,51.80
2022-11-05T13:20:34.209Z,46.00
2022-11-05T13:23:14.267Z,52.70
2022-11-05T13:25:53.819Z,53.60
2022-11-05T13:28:37.119Z,51.40
2022-11-05T13:31:15.252Z,49.00
2022-11-05T13:33:48.492Z,56.20
2022-11-05T13:36:41.347Z,57.90
2022-11-05T13:39:19.474Z,58.30
2022-11-05T13:42:23.553Z,51.20
2022-11-05T13:45:30.132Z,47.30
2022-11-05T13:48:26.576Z,48.90
2022-11-05T13:51:36.158Z,47.90
2022-11-05T13:54:49.096Z,44.50
2022-11-05T13:57:44.595Z,46.10
2022-11-05T14:00:20.168Z,46.60
2022-11-05T14:02:55.359Z,46.10
2022-11-05T14:05:35.387Z,50.90
2022-11-05T14:08:15.095Z,50.40
2022-11-05T14:10:57.924Z,43.10
2022-11-05T14:13:36.596Z,45.10
2022-11-05T14:16:11.639Z,52.50
2022-11-05T14:18:46.499Z,69.50
2022-11-05T14:21:47.546Z,56.80
2022-11-05T14:24:44.417Z,45.00
2022-11-05T14:27:44.591Z,48.90
2022-11-05T14:30:47.305Z,48.10
2022-11-05T14:33:33.250Z,44.10
2022-11-05T14:36:32.395Z,47.40
2022-11-05T14:39:19.540Z,50.10
2022-11-05T14:42:01.948Z,53.00
2022-11-05T14:44:34.903Z,48.20
2022-11-05T14:47:09.034Z,43.80
2022-11-05T14:49:53.080Z,41.60
2022-11-05T14:52:25.018Z,44.80
2022-11-05T14:54:58.955Z,42.70
2022-11-05T14:58:06.050Z,45.70
2022-11-05T15:00:52.011Z,43.10
2022-11-05T15:04:07.020Z,41.30
2022-11-05T15:06:38.566Z,42.50
2022-11-05T15:09:30.902Z,46.90
2022-11-05T15:12:10.185Z,41.00
2022-11-05T15:14:51.509Z,45.10
2022-11-05T15:17:30.156Z,41.10
2022-11-05T15:20:16.721Z,39.40
2022-11-05T15:22:52.803Z,43.90
2022-11-05T15:25:28.133Z,47.30
2022-11-05T15:28:08.356Z,38.30
2022-11-05T15:30:39.565Z,39.90
2022-11-05T15:33:21.494Z,41.40
2022-11-05T15:35:52.428Z,45.40
2022-11-05T15:38:34.157Z,41.90
2022-11-05T15:41:07.677Z,37.60
2022-11-05T15:43:48.089Z,43.50
2022-11-05T15:46:22.181Z,49.10
2022-11-05T15:48:55.267Z,47.70
2022-11-05T15:51:27.802Z,47.00
2022-11-05T15:54:28.637Z,39.20
2022-11-05T15:56:55.911Z,40.30
2022-11-05T15:59:29.801Z,39.00
2022-11-05T16:02:07.041Z,39.30
2022-11-05T16:04:38.485Z,41.20
2022-11-05T16:07:13.260Z,38.40
2022-11-05T16:09:59.006Z,43.10
2022-11-05T16:12:40.509Z,43.40
2022-11-05T16:15:26.715Z,41.00
2022-11-05T16:17:59.805Z,44.10
2022-11-05T16:20:34.271Z,43.00
2022-11-05T16:23:07.980Z,38.00
2022-11-05T16:25:44.118Z,43.20
2022-11-05T16:28:25.745Z,43.40
2022-11-05T16:31:03.254Z,38.10
2022-11-05T16:33:44.826Z,42.70
2022-11-05T16:36:15.797Z,38.80
2022-11-05T16:38:47.651Z,37.70
2022-11-05T16:41:20.407Z,36.50
2022-11-05T16:43:56.508Z,38.30
2022-11-05T16:46:29.697Z,37.10
2022-11-05T16:49:02.990Z,35.70
2022-11-05T16:51:34.564Z,42.10
2022-11-05T16:54:06.154Z,37.70
2022-11-05T16:56:38.039Z,37.30
2022-11-05T16:59:12.314Z,39.70
2022-11-05T17:01:45.223Z,38.80
2022-11-05T17:04:16.324Z,39.40
2022-11-05T17:06:50.165Z,37.80
2022-11-05T17:09:21.519Z,36.10
2022-11-05T17:11:52.778Z,36.60
2022-11-05T17:14:23.718Z,37.70
2022-11-05T17:16:54.814Z,38.00
2022-11-05T17:19:29.347Z,37.40
2022-11-05T17:22:08.185Z,35.80
2022-11-05T17:24:39.706Z,39.10
2022-11-05T17:27:10.989Z,38.10
2022-11-05T17:29:42.308Z,36.20
2022-11-05T17:32:13.362Z,44.10
2022-11-05T17:34:45.159Z,40.80
2022-11-05T17:37:16.112Z,37.20
2022-11-05T17:39:47.022Z,39.60
2022-11-05T17:42:18.267Z,41.20
2022-11-05T17:44:50.011Z,41.10
2022-11-05T17:47:21.825Z,44.70
2022-11-05T17:49:53.199Z,40.50
2022-11-05T17:52:24.515Z,37.70
2022-11-05T17:54:55.476Z,39.10
2022-11-05T17:57:30.046Z,40.20
2022-11-05T18:00:05.302Z,39.10
2022-11-05T18:02:42.070Z,35.80
2022-11-05T18:05:16.276Z,38.80
2022-11-05T18:07:51.941Z,39.00
2022-11-05T18:10:23.467Z,38.50
2022-11-05T18:12:55.251Z,38.20
2022-11-05T18:15:30.697Z,34.80
2022-11-05T18:18:02.084Z,34.70
2022-11-05T18:20:34.174Z,34.70
2022-11-05T18:23:05.584Z,38.60
2022-11-05T18:25:36.596Z,32.90
2022-11-05T18:28:07.978Z,37.00
2022-11-05T18:30:40.827Z,34.10
2022-11-05T18:33:12.086Z,30.00
2022-11-05T18:35:46.427Z,33.80
2022-11-05T18:38:17.516Z,32.20
2022-11-05T18:40:48.445Z,32.90
2022-11-05T18:43:19.540Z,24.70
2022-11-05T18:45:57.697Z,20.40
2022-11-05T18:48:28.581Z,18.70
2022-11-05T18:51:02.030Z,23.50
2022-11-05T18:53:33.530Z,19.20
2022-11-05T18:56:10.247Z,21.60
2022-11-05T18:58:43.023Z,21.90
2022-11-05T19:01:18.267Z,12.60
2022-11-05T19:03:51.268Z,15.20
2022-11-05T19:06:22.493Z,14.90
2022-11-05T19:08:53.946Z,14.50
2022-11-05T19:11:26.506Z,12.90
2022-11-05T19:13:57.637Z,15.30
2022-11-05T19:16:30.740Z,14.00
2022-11-05T19:19:03.261Z,17.20
2022-11-05T19:21:34.691Z,13.70
2022-11-05T19:24:06.639Z,19.10
2022-11-05T19:26:37.617Z,11.50
2022-11-05T19:29:08.835Z,12.70
2022-11-05T19:31:39.997Z,14.60
2022-11-05T19:34:11.457Z,15.70
2022-11-05T19:36:43.541Z,13.00
2022-11-05T19:39:16.566Z,14.10
2022-11-05T19:41:49.387Z,14.90
2022-11-05T19:44:20.287Z,12.70
2022-11-05T19:46:51.371Z,16.00
2022-11-05T19:49:22.247Z,12.50
2022-11-05T19:51:53.074Z,14.10
2022-11-05T19:54:24.074Z,24.60
2022-11-05T19:56:56.759Z,25.10
2022-11-05T19:59:35.507Z,16.50
2022-11-05T20:02:13.292Z,12.30
2022-11-05T20:04:47.278Z,15.00
2022-11-05T20:07:20.597Z,21.50
2022-11-05T20:09:51.439Z,14.60
2022-11-05T20:12:22.550Z,15.90
2022-11-05T20:14:53.749Z,17.30
2022-11-05T20:17:24.840Z,16.40
2022-11-05T20:19:56.502Z,16.70
2022-11-05T20:22:27.390Z,18.30
2022-11-05T20:24:58.629Z,13.40
2022-11-05T20:27:30.016Z,15.50
2022-11-05T20:30:01.098Z,15.90
2022-11-05T20:32:32.038Z,16.50
2022-11-05T20:35:03.299Z,16.50
2022-11-05T20:37:34.607Z,28.50
2022-11-05T20:40:06.972Z,16.00
2022-11-05T20:42:39.624Z,16.50
2022-11-05T20:45:11.876Z,19.00
2022-11-05T20:47:43.765Z,21.10
2022-11-05T20:50:14.615Z,18.30
2022-11-05T20:52:45.483Z,18.90
2022-11-05T20:55:16.610Z,18.70
2022-11-05T20:57:47.514Z,19.10
2022-11-05T21:00:19.881Z,18.70
2022-11-05T21:02:51.123Z,20.00
2022-11-05T21:05:22.448Z,24.70
2022-11-05T21:07:53.568Z,17.80
2022-11-05T21:10:26.282Z,37.30
2022-11-05T21:12:57.450Z,24.70
2022-11-05T21:15:28.562Z,27.60
2022-11-05T21:18:00.649Z,18.80
2022-11-05T21:20:32.093Z,20.90
2022-11-05T21:23:03.178Z,21.30
2022-11-05T21:25:34.441Z,17.90
2022-11-05T21:28:05.544Z,20.30
2022-11-05T21:30:37.588Z,23.10
2022-11-05T21:33:09.296Z,27.50
2022-11-05T21:35:44.976Z,24.60
2022-11-05T21:38:17.807Z,22.20
2022-11-05T21:40:48.865Z,20.10
2022-11-05T21:43:19.930Z,24.30
2022-11-05T21:45:50.955Z,19.60
2022-11-05T21:48:22.159Z,20.90
2022-11-05T21:51:12.556Z,24.80
2022-11-05T21:54:01.582Z,19.80
2022-11-05T21:56:50.886Z,24.90
2022-11-05T21:59:41.421Z,18.40
2022-11-05T22:02:14.928Z,16.70
2022-11-05T22:04:47.969Z,21.00
2022-11-05T22:07:21.472Z,20.70
2022-11-05T22:09:53.180Z,20.80
2022-11-05T22:12:25.587Z,17.50
2022-11-05T22:14:57.165Z,19.90
2022-11-05T22:17:28.745Z,21.20
2022-11-05T22:19:59.684Z,22.30
2022-11-05T22:22:30.831Z,19.50
2022-11-05T22:25:02.216Z,23.60
2022-11-05T22:27:33.276Z,19.60
2022-11-05T22:30:04.893Z,23.20
2022-11-05T22:32:35.880Z,27.50
2022-11-05T22:35:08.496Z,20.40
2022-11-05T22:37:39.438Z,16.80
2022-11-05T22:40:12.968Z,20.30
2022-11-05T22:42:43.866Z,23.90
2022-11-05T22:45:15.166Z,25.90
2022-11-05T22:47:46.506Z,22.10
2022-11-05T22:50:17.591Z,29.90
2022-11-05T22:52:48.693Z,20.30
2022-11-05T22:55:19.698Z,23.40
2022-11-05T22:57:50.686Z,18.80
2022-11-05T23:00:22.800Z,19.10
2022-11-05T23:02:54.375Z,24.80
2022-11-05T23:05:25.795Z,16.90
2022-11-05T23:08:14.357Z,21.40
2022-11-05T23:11:03.804Z,20.60
2022-11-05T23:13:35.257Z,19.70
2022-11-05T23:16:24.326Z,25.50
2022-11-05T23:19:12.782Z,19.50
2022-11-05T23:22:01.682Z,24.40
2022-11-05T23:24:32.954Z,16.30
2022-11-05T23:27:04.474Z,21.90
2022-11-05T23:29:35.956Z,22.90
2022-11-05T23:32:25.378Z,18.80
2022-11-05T23:34:58.306Z,23.90
2022-11-05T23:37:51.547Z,34.70
2022-11-05T23:40:25.811Z,21.20
2022-11-05T23:43:15.384Z,23.90
2022-11-05T23:46:05.234Z,19.50
2022-11-05T23:48:38.503Z,15.40
2022-11-05T23:51:12.460Z,19.80
2022-11-05T23:53:44.455Z,24.60
2022-11-05T23:56:16.727Z,14.50
2022-11-05T23:58:48.835Z,19.10
